sensor_id;sensor_type;location;lat;lon;timestamp;pressure;altitude;pressure_sealevel;temperature;humidity
22753;BME280;11543;43.144;24.684;2023-03-13T00:00:11;99275.97;;;5.78;51.03
22753;BME280;11543;43.144;24.684;2023-03-13T00:02:36;99270.66;;;5.78;50.94
22753;BME280;11543;43.144;24.684;2023-03-13T00:05:02;99274.50;;;5.73;51.19
22753;BME280;11543;43.144;24.684;2023-03-13T00:07:27;99283.22;;;5.75;51.05
22753;BME280;11543;43.144;24.684;2023-03-13T00:09:53;99281.53;;;5.74;50.75
22753;BME280;11543;43.144;24.684;2023-03-13T00:12:18;99273.66;;;5.73;51.08
22753;BME280;11543;43.144;24.684;2023-03-13T00:14:44;99280.06;;;5.70;51.15
22753;BME280;11543;43.144;24.684;2023-03-13T00:17:09;99273.25;;;5.66;51.63
22753;BME280;11543;43.144;24.684;2023-03-13T00:19:36;99283.91;;;5.66;51.67
22753;BME280;11543;43.144;24.684;2023-03-13T00:22:02;99286.34;;;5.69;51.63
22753;BME280;11543;43.144;24.684;2023-03-13T00:24:27;99291.66;;;5.69;51.86
22753;BME280;11543;43.144;24.684;2023-03-13T00:26:54;99288.78;;;5.72;51.89
22753;BME280;11543;43.144;24.684;2023-03-13T00:29:20;99293.13;;;5.73;51.89
22753;BME280;11543;43.144;24.684;2023-03-13T00:31:45;99289.00;;;5.69;51.81
22753;BME280;11543;43.144;24.684;2023-03-13T00:34:10;99291.78;;;5.68;51.59
22753;BME280;11543;43.144;24.684;2023-03-13T00:36:36;99289.22;;;5.66;51.96
22753;BME280;11543;43.144;24.684;2023-03-13T00:39:03;99286.28;;;5.58;52.05
22753;BME280;11543;43.144;24.684;2023-03-13T00:41:31;99295.28;;;5.44;53.27
22753;BME280;11543;43.144;24.684;2023-03-13T00:43:57;99289.56;;;5.38;53.10
22753;BME280;11543;43.144;24.684;2023-03-13T00:46:26;99284.22;;;5.38;53.22
22753;BME280;11543;43.144;24.684;2023-03-13T00:48:52;99287.25;;;5.21;53.20
22753;BME280;11543;43.144;24.684;2023-03-13T00:51:18;99286.81;;;5.14;53.90
22753;BME280;11543;43.144;24.684;2023-03-13T00:53:45;99292.38;;;4.98;53.85
22753;BME280;11543;43.144;24.684;2023-03-13T00:56:13;99281.16;;;4.69;54.23
22753;BME280;11543;43.144;24.684;2023-03-13T00:58:40;99297.94;;;4.44;54.34
22753;BME280;11543;43.144;24.684;2023-03-13T01:03:44;99299.56;;;3.95;53.36
22753;BME280;11543;43.144;24.684;2023-03-13T01:06:14;99312.13;;;3.78;54.54
22753;BME280;11543;43.144;24.684;2023-03-13T01:08:39;99307.19;;;3.87;56.76
22753;BME280;11543;43.144;24.684;2023-03-13T01:11:08;99309.13;;;4.10;57.33
22753;BME280;11543;43.144;24.684;2023-03-13T01:13:34;99303.41;;;4.16;57.14
22753;BME280;11543;43.144;24.684;2023-03-13T01:16:14;99301.94;;;4.25;57.58
22753;BME280;11543;43.144;24.684;2023-03-13T01:18:43;99310.91;;;4.36;56.88
22753;BME280;11543;43.144;24.684;2023-03-13T01:21:09;99308.91;;;4.40;56.57
22753;BME280;11543;43.144;24.684;2023-03-13T01:23:35;99315.19;;;4.52;56.48
22753;BME280;11543;43.144;24.684;2023-03-13T01:26:03;99300.28;;;4.49;56.23
22753;BME280;11543;43.144;24.684;2023-03-13T01:28:29;99315.72;;;4.57;56.45
22753;BME280;11543;43.144;24.684;2023-03-13T01:30:54;99317.41;;;4.58;55.82
22753;BME280;11543;43.144;24.684;2023-03-13T01:33:20;99309.22;;;4.61;55.97
22753;BME280;11543;43.144;24.684;2023-03-13T01:35:45;99319.22;;;4.70;55.69
22753;BME280;11543;43.144;24.684;2023-03-13T01:38:11;99305.59;;;4.62;55.63
22753;BME280;11543;43.144;24.684;2023-03-13T01:40:45;99309.00;;;4.64;55.32
22753;BME280;11543;43.144;24.684;2023-03-13T01:43:17;99317.50;;;4.69;55.94
22753;BME280;11543;43.144;24.684;2023-03-13T01:51:12;99314.31;;;4.64;55.57
22753;BME280;11543;43.144;24.684;2023-03-13T01:53:41;99324.09;;;4.63;55.56
22753;BME280;11543;43.144;24.684;2023-03-13T01:56:18;99325.81;;;4.64;55.85
22753;BME280;11543;43.144;24.684;2023-03-13T01:58:46;99324.63;;;4.56;56.17
22753;BME280;11543;43.144;24.684;2023-03-13T02:01:13;99321.44;;;4.51;55.83
22753;BME280;11543;43.144;24.684;2023-03-13T02:03:39;99323.03;;;4.53;56.10
22753;BME280;11543;43.144;24.684;2023-03-13T02:06:05;99323.88;;;4.54;56.59
22753;BME280;11543;43.144;24.684;2023-03-13T02:08:36;99331.31;;;4.48;56.76
22753;BME280;11543;43.144;24.684;2023-03-13T02:12:07;99325.59;;;4.55;56.19
22753;BME280;11543;43.144;24.684;2023-03-13T02:14:06;99322.41;;;4.50;55.89
22753;BME280;11543;43.144;24.684;2023-03-13T02:16:33;99320.50;;;4.52;56.18
22753;BME280;11543;43.144;24.684;2023-03-13T02:19:01;99339.84;;;4.54;55.95
22753;BME280;11543;43.144;24.684;2023-03-13T02:24:20;99337.19;;;4.54;56.75
22753;BME280;11543;43.144;24.684;2023-03-13T02:26:49;99334.72;;;4.51;56.62
22753;BME280;11543;43.144;24.684;2023-03-13T02:29:14;99335.94;;;4.32;57.02
22753;BME280;11543;43.144;24.684;2023-03-13T02:31:46;99353.53;;;4.08;57.08
22753;BME280;11543;43.144;24.684;2023-03-13T02:34:19;99355.41;;;3.93;58.25
22753;BME280;11543;43.144;24.684;2023-03-13T02:36:46;99345.44;;;3.97;58.28
22753;BME280;11543;43.144;24.684;2023-03-13T02:39:15;99352.03;;;4.04;58.18
22753;BME280;11543;43.144;24.684;2023-03-13T02:41:41;99360.53;;;4.09;58.09
22753;BME280;11543;43.144;24.684;2023-03-13T02:44:09;99353.13;;;4.14;57.42
22753;BME280;11543;43.144;24.684;2023-03-13T02:46:49;99366.75;;;4.22;57.48
22753;BME280;11543;43.144;24.684;2023-03-13T02:49:25;99358.03;;;4.20;57.38
22753;BME280;11543;43.144;24.684;2023-03-13T02:51:52;99363.34;;;4.20;57.58
22753;BME280;11543;43.144;24.684;2023-03-13T02:54:22;99359.94;;;4.18;57.67
22753;BME280;11543;43.144;24.684;2023-03-13T02:56:52;99366.19;;;4.17;57.39
22753;BME280;11543;43.144;24.684;2023-03-13T02:59:19;99366.59;;;4.11;56.92
22753;BME280;11543;43.144;24.684;2023-03-13T03:01:45;99367.56;;;4.10;57.00
22753;BME280;11543;43.144;24.684;2023-03-13T03:04:11;99369.47;;;4.08;56.88
22753;BME280;11543;43.144;24.684;2023-03-13T03:06:36;99380.72;;;4.11;56.82
22753;BME280;11543;43.144;24.684;2023-03-13T03:09:02;99392.09;;;4.13;56.70
22753;BME280;11543;43.144;24.684;2023-03-13T03:11:28;99387.09;;;4.09;56.86
22753;BME280;11543;43.144;24.684;2023-03-13T03:13:53;99394.50;;;4.04;56.89
22753;BME280;11543;43.144;24.684;2023-03-13T03:16:19;99395.56;;;4.01;57.33
22753;BME280;11543;43.144;24.684;2023-03-13T03:18:45;99407.22;;;3.99;57.89
22753;BME280;11543;43.144;24.684;2023-03-13T03:21:11;99401.94;;;3.99;58.09
22753;BME280;11543;43.144;24.684;2023-03-13T03:23:37;99390.00;;;3.92;57.67
22753;BME280;11543;43.144;24.684;2023-03-13T03:26:04;99400.44;;;3.95;57.10
22753;BME280;11543;43.144;24.684;2023-03-13T03:28:31;99405.72;;;3.95;57.04
22753;BME280;11543;43.144;24.684;2023-03-13T03:30:56;99400.44;;;3.95;57.24
22753;BME280;11543;43.144;24.684;2023-03-13T03:33:22;99407.22;;;3.99;57.54
22753;BME280;11543;43.144;24.684;2023-03-13T03:35:49;99409.59;;;4.03;57.43
22753;BME280;11543;43.144;24.684;2023-03-13T03:38:15;99414.03;;;4.03;57.82
22753;BME280;11543;43.144;24.684;2023-03-13T03:40:40;99412.75;;;3.96;58.02
22753;BME280;11543;43.144;24.684;2023-03-13T03:43:06;99426.22;;;3.93;57.81
22753;BME280;11543;43.144;24.684;2023-03-13T03:45:31;99431.38;;;3.81;58.24
22753;BME280;11543;43.144;24.684;2023-03-13T03:47:57;99422.09;;;3.74;58.28
22753;BME280;11543;43.144;24.684;2023-03-13T03:50:26;99439.22;;;3.83;57.91
22753;BME280;11543;43.144;24.684;2023-03-13T03:52:51;99441.97;;;3.81;57.71
22753;BME280;11543;43.144;24.684;2023-03-13T03:55:18;99443.69;;;3.82;58.33
22753;BME280;11543;43.144;24.684;2023-03-13T03:57:43;99448.03;;;3.83;58.54
22753;BME280;11543;43.144;24.684;2023-03-13T04:00:10;99470.97;;;3.84;58.28
22753;BME280;11543;43.144;24.684;2023-03-13T04:02:38;99463.22;;;3.81;58.39
22753;BME280;11543;43.144;24.684;2023-03-13T04:05:04;99465.97;;;3.80;58.12
22753;BME280;11543;43.144;24.684;2023-03-13T04:07:29;99470.44;;;3.79;57.90
22753;BME280;11543;43.144;24.684;2023-03-13T04:09:55;99464.09;;;3.68;57.69
22753;BME280;11543;43.144;24.684;2023-03-13T04:12:20;99473.56;;;3.72;57.55
22753;BME280;11543;43.144;24.684;2023-03-13T04:14:46;99476.50;;;3.67;57.42
22753;BME280;11543;43.144;24.684;2023-03-13T04:17:11;99477.56;;;3.65;57.20
22753;BME280;11543;43.144;24.684;2023-03-13T04:19:37;99483.31;;;3.71;57.12
22753;BME280;11543;43.144;24.684;2023-03-13T04:22:02;99488.44;;;3.74;57.20
22753;BME280;11543;43.144;24.684;2023-03-13T04:24:28;99479.91;;;3.69;57.91
22753;BME280;11543;43.144;24.684;2023-03-13T04:26:53;99485.59;;;3.63;58.54
22753;BME280;11543;43.144;24.684;2023-03-13T04:29:19;99496.03;;;3.66;58.60
22753;BME280;11543;43.144;24.684;2023-03-13T04:31:44;99501.53;;;3.63;58.60
22753;BME280;11543;43.144;24.684;2023-03-13T04:34:10;99496.38;;;3.46;58.49
22753;BME280;11543;43.144;24.684;2023-03-13T04:36:35;99495.00;;;2.96;58.00
22753;BME280;11543;43.144;24.684;2023-03-13T04:39:01;99508.09;;;2.69;57.87
22753;BME280;11543;43.144;24.684;2023-03-13T04:41:26;99509.56;;;2.43;58.02
22753;BME280;11543;43.144;24.684;2023-03-13T04:43:52;99528.38;;;2.23;58.20
22753;BME280;11543;43.144;24.684;2023-03-13T04:46:18;99531.28;;;2.03;58.33
22753;BME280;11543;43.144;24.684;2023-03-13T04:48:43;99541.59;;;1.91;59.88
22753;BME280;11543;43.144;24.684;2023-03-13T04:51:09;99531.53;;;2.14;61.55
22753;BME280;11543;43.144;24.684;2023-03-13T04:53:34;99534.78;;;2.19;61.62
22753;BME280;11543;43.144;24.684;2023-03-13T04:56:00;99524.53;;;2.13;61.97
22753;BME280;11543;43.144;24.684;2023-03-13T04:58:25;99542.97;;;2.30;62.31
22753;BME280;11543;43.144;24.684;2023-03-13T05:00:52;99542.28;;;2.42;62.19
22753;BME280;11543;43.144;24.684;2023-03-13T05:03:18;99541.44;;;2.42;62.07
22753;BME280;11543;43.144;24.684;2023-03-13T05:05:43;99547.06;;;2.51;62.48
22753;BME280;11543;43.144;24.684;2023-03-13T05:08:09;99541.09;;;2.64;62.26
22753;BME280;11543;43.144;24.684;2023-03-13T05:10:35;99539.44;;;2.77;61.93
22753;BME280;11543;43.144;24.684;2023-03-13T05:13:01;99548.38;;;2.90;61.55
22753;BME280;11543;43.144;24.684;2023-03-13T05:15:27;99547.47;;;3.05;61.51
22753;BME280;11543;43.144;24.684;2023-03-13T05:17:53;99549.75;;;3.11;61.10
22753;BME280;11543;43.144;24.684;2023-03-13T05:20:18;99548.63;;;3.15;61.07
22753;BME280;11543;43.144;24.684;2023-03-13T05:22:45;99566.47;;;3.28;60.92
22753;BME280;11543;43.144;24.684;2023-03-13T05:25:11;99569.69;;;3.33;61.11
22753;BME280;11543;43.144;24.684;2023-03-13T05:27:37;99568.56;;;3.37;60.89
22753;BME280;11543;43.144;24.684;2023-03-13T05:30:04;99571.59;;;3.45;60.84
22753;BME280;11543;43.144;24.684;2023-03-13T05:32:31;99577.59;;;3.48;60.93
22753;BME280;11543;43.144;24.684;2023-03-13T05:34:58;99576.56;;;3.51;60.40
22753;BME280;11543;43.144;24.684;2023-03-13T05:37:27;99570.97;;;3.56;60.84
22753;BME280;11543;43.144;24.684;2023-03-13T05:39:54;99564.72;;;3.57;60.38
22753;BME280;11543;43.144;24.684;2023-03-13T05:42:21;99559.91;;;3.63;60.55
22753;BME280;11543;43.144;24.684;2023-03-13T05:44:47;99573.56;;;3.71;60.06
22753;BME280;11543;43.144;24.684;2023-03-13T05:47:13;99571.47;;;3.76;60.16
22753;BME280;11543;43.144;24.684;2023-03-13T05:49:40;99580.19;;;3.78;60.39
22753;BME280;11543;43.144;24.684;2023-03-13T05:52:06;99578.75;;;3.87;60.04
22753;BME280;11543;43.144;24.684;2023-03-13T05:54:31;99575.63;;;3.95;59.70
22753;BME280;11543;43.144;24.684;2023-03-13T05:56:57;99575.06;;;4.04;59.15
22753;BME280;11543;43.144;24.684;2023-03-13T05:59:23;99577.44;;;4.08;59.64
22753;BME280;11543;43.144;24.684;2023-03-13T06:01:48;99588.13;;;4.21;59.13
22753;BME280;11543;43.144;24.684;2023-03-13T06:04:21;99591.91;;;4.31;59.33
22753;BME280;11543;43.144;24.684;2023-03-13T06:06:56;99595.91;;;4.38;58.71
22753;BME280;11543;43.144;24.684;2023-03-13T06:09:21;99590.59;;;4.38;58.89
22753;BME280;11543;43.144;24.684;2023-03-13T06:11:47;99597.22;;;4.45;59.08
22753;BME280;11543;43.144;24.684;2023-03-13T06:14:12;99596.28;;;4.46;59.06
22753;BME280;11543;43.144;24.684;2023-03-13T06:16:38;99585.81;;;4.58;59.30
22753;BME280;11543;43.144;24.684;2023-03-13T06:19:03;99589.38;;;4.71;58.62
22753;BME280;11543;43.144;24.684;2023-03-13T06:21:29;99585.06;;;4.83;58.09
22753;BME280;11543;43.144;24.684;2023-03-13T06:23:55;99590.97;;;5.00;57.74
22753;BME280;11543;43.144;24.684;2023-03-13T06:26:23;99589.19;;;5.13;57.19
22753;BME280;11543;43.144;24.684;2023-03-13T06:28:50;99587.44;;;5.27;57.43
22753;BME280;11543;43.144;24.684;2023-03-13T06:31:17;99585.00;;;5.36;57.26
22753;BME280;11543;43.144;24.684;2023-03-13T06:33:42;99590.13;;;5.52;57.30
22753;BME280;11543;43.144;24.684;2023-03-13T06:36:08;99579.06;;;5.58;57.86
22753;BME280;11543;43.144;24.684;2023-03-13T06:38:34;99571.81;;;5.60;58.14
22753;BME280;11543;43.144;24.684;2023-03-13T06:41:00;99579.50;;;5.78;58.17
22753;BME280;11543;43.144;24.684;2023-03-13T06:43:25;99571.59;;;5.89;58.27
22753;BME280;11543;43.144;24.684;2023-03-13T06:45:51;99575.25;;;6.00;57.82
22753;BME280;11543;43.144;24.684;2023-03-13T06:48:17;99573.78;;;6.09;58.00
22753;BME280;11543;43.144;24.684;2023-03-13T06:50:45;99577.19;;;6.11;57.53
22753;BME280;11543;43.144;24.684;2023-03-13T06:53:18;99562.97;;;6.23;57.26
22753;BME280;11543;43.144;24.684;2023-03-13T06:55:44;99561.13;;;6.36;56.84
22753;BME280;11543;43.144;24.684;2023-03-13T06:58:10;99556.38;;;6.53;56.45
22753;BME280;11543;43.144;24.684;2023-03-13T07:00:36;99546.41;;;6.67;56.09
22753;BME280;11543;43.144;24.684;2023-03-13T07:03:04;99540.28;;;6.78;55.30
22753;BME280;11543;43.144;24.684;2023-03-13T07:05:30;99539.91;;;6.95;53.74
22753;BME280;11543;43.144;24.684;2023-03-13T07:07:55;99527.56;;;7.06;53.87
22753;BME280;11543;43.144;24.684;2023-03-13T07:10:20;99546.03;;;7.20;54.94
22753;BME280;11543;43.144;24.684;2023-03-13T07:12:47;99543.66;;;7.28;54.96
22753;BME280;11543;43.144;24.684;2023-03-13T07:15:15;99542.94;;;7.37;54.04
22753;BME280;11543;43.144;24.684;2023-03-13T07:17:40;99543.94;;;7.47;53.89
22753;BME280;11543;43.144;24.684;2023-03-13T07:20:06;99535.94;;;7.58;52.87
22753;BME280;11543;43.144;24.684;2023-03-13T07:22:35;99535.72;;;7.73;52.55
22753;BME280;11543;43.144;24.684;2023-03-13T07:25:00;99534.03;;;7.83;51.90
22753;BME280;11543;43.144;24.684;2023-03-13T07:27:26;99538.91;;;7.89;52.13
22753;BME280;11543;43.144;24.684;2023-03-13T07:29:51;99535.38;;;7.99;51.33
22753;BME280;11543;43.144;24.684;2023-03-13T07:32:17;99544.72;;;8.05;52.05
22753;BME280;11543;43.144;24.684;2023-03-13T07:34:42;99545.34;;;8.09;51.98
22753;BME280;11543;43.144;24.684;2023-03-13T07:37:13;99541.44;;;8.13;52.64
22753;BME280;11543;43.144;24.684;2023-03-13T07:39:40;99535.25;;;8.12;52.46
22753;BME280;11543;43.144;24.684;2023-03-13T07:42:07;99517.28;;;8.03;52.90
22753;BME280;11543;43.144;24.684;2023-03-13T07:44:33;99517.03;;;8.06;52.44
22753;BME280;11543;43.144;24.684;2023-03-13T07:46:59;99521.41;;;8.07;52.68
22753;BME280;11543;43.144;24.684;2023-03-13T07:49:26;99528.94;;;8.02;51.85
22753;BME280;11543;43.144;24.684;2023-03-13T07:51:52;99535.03;;;7.93;51.58
22753;BME280;11543;43.144;24.684;2023-03-13T07:54:18;99514.13;;;7.87;51.13
22753;BME280;11543;43.144;24.684;2023-03-13T07:56:43;99514.75;;;7.90;51.57
22753;BME280;11543;43.144;24.684;2023-03-13T07:59:09;99515.47;;;7.92;51.32
22753;BME280;11543;43.144;24.684;2023-03-13T08:01:34;99506.97;;;7.98;51.11
22753;BME280;11543;43.144;24.684;2023-03-13T08:04:00;99510.81;;;8.17;50.92
22753;BME280;11543;43.144;24.684;2023-03-13T08:06:26;99526.25;;;8.24;50.83
22753;BME280;11543;43.144;24.684;2023-03-13T08:08:56;99519.69;;;8.28;50.73
22753;BME280;11543;43.144;24.684;2023-03-13T08:11:24;99510.94;;;8.38;50.67
22753;BME280;11543;43.144;24.684;2023-03-13T08:13:50;99500.72;;;8.43;50.36
22753;BME280;11543;43.144;24.684;2023-03-13T08:16:18;99504.81;;;8.58;49.68
22753;BME280;11543;43.144;24.684;2023-03-13T08:18:47;99502.59;;;8.63;49.77
22753;BME280;11543;43.144;24.684;2023-03-13T08:21:23;99496.00;;;8.78;49.74
22753;BME280;11543;43.144;24.684;2023-03-13T08:23:53;99485.06;;;9.02;49.13
22753;BME280;11543;43.144;24.684;2023-03-13T08:26:21;99482.84;;;9.28;48.14
22753;BME280;11543;43.144;24.684;2023-03-13T08:28:51;99486.91;;;9.43;48.33
22753;BME280;11543;43.144;24.684;2023-03-13T08:31:20;99479.38;;;9.58;48.38
22753;BME280;11543;43.144;24.684;2023-03-13T08:33:46;99493.09;;;9.65;47.79
22753;BME280;11543;43.144;24.684;2023-03-13T08:36:22;99484.41;;;9.72;47.43
22753;BME280;11543;43.144;24.684;2023-03-13T08:38:50;99477.47;;;9.70;46.27
22753;BME280;11543;43.144;24.684;2023-03-13T08:41:21;99484.00;;;9.77;45.55
22753;BME280;11543;43.144;24.684;2023-03-13T08:43:47;99478.38;;;9.80;46.20
22753;BME280;11543;43.144;24.684;2023-03-13T08:46:14;99474.78;;;10.00;45.84
22753;BME280;11543;43.144;24.684;2023-03-13T08:48:40;99485.94;;;10.05;44.48
22753;BME280;11543;43.144;24.684;2023-03-13T08:51:08;99484.94;;;10.06;44.54
22753;BME280;11543;43.144;24.684;2023-03-13T08:53:35;99475.09;;;10.16;45.44
22753;BME280;11543;43.144;24.684;2023-03-13T08:56:01;99477.16;;;10.34;46.09
22753;BME280;11543;43.144;24.684;2023-03-13T08:58:26;99466.50;;;10.72;44.72
22753;BME280;11543;43.144;24.684;2023-03-13T09:00:53;99451.19;;;11.21;42.63
22753;BME280;11543;43.144;24.684;2023-03-13T09:03:18;99445.69;;;11.69;42.39
22753;BME280;11543;43.144;24.684;2023-03-13T09:05:44;99446.19;;;11.92;42.43
22753;BME280;11543;43.144;24.684;2023-03-13T09:08:12;99450.19;;;11.88;41.84
22753;BME280;11543;43.144;24.684;2023-03-13T09:10:38;99448.19;;;11.90;41.46
22753;BME280;11543;43.144;24.684;2023-03-13T09:13:04;99450.06;;;12.07;42.17
22753;BME280;11543;43.144;24.684;2023-03-13T09:15:29;99442.31;;;12.04;41.17
22753;BME280;11543;43.144;24.684;2023-03-13T09:17:55;99438.16;;;12.10;40.96
22753;BME280;11543;43.144;24.684;2023-03-13T09:20:20;99440.53;;;12.23;40.26
22753;BME280;11543;43.144;24.684;2023-03-13T09:22:46;99429.06;;;12.21;39.50
22753;BME280;11543;43.144;24.684;2023-03-13T09:25:12;99433.00;;;12.26;39.44
22753;BME280;11543;43.144;24.684;2023-03-13T09:27:37;99438.63;;;12.33;39.28
22753;BME280;11543;43.144;24.684;2023-03-13T09:30:04;99438.00;;;12.39;39.30
22753;BME280;11543;43.144;24.684;2023-03-13T09:32:30;99441.41;;;12.41;39.93
22753;BME280;11543;43.144;24.684;2023-03-13T09:34:55;99442.47;;;12.48;39.34
22753;BME280;11543;43.144;24.684;2023-03-13T09:37:21;99433.03;;;12.44;39.17
22753;BME280;11543;43.144;24.684;2023-03-13T09:39:50;99438.50;;;12.52;38.62
22753;BME280;11543;43.144;24.684;2023-03-13T09:42:49;99438.41;;;12.62;38.22
22753;BME280;11543;43.144;24.684;2023-03-13T09:45:21;99438.19;;;12.55;38.92
22753;BME280;11543;43.144;24.684;2023-03-13T09:48:00;99434.09;;;12.69;39.38
22753;BME280;11543;43.144;24.684;2023-03-13T09:50:30;99437.09;;;12.84;39.38
22753;BME280;11543;43.144;24.684;2023-03-13T09:52:59;99440.25;;;12.97;39.11
22753;BME280;11543;43.144;24.684;2023-03-13T09:55:30;99427.63;;;12.97;38.35
22753;BME280;11543;43.144;24.684;2023-03-13T09:58:02;99419.53;;;13.15;37.21
22753;BME280;11543;43.144;24.684;2023-03-13T10:00:40;99412.16;;;13.17;37.42
22753;BME280;11543;43.144;24.684;2023-03-13T10:05:58;99415.25;;;13.22;37.46
22753;BME280;11543;43.144;24.684;2023-03-13T10:08:29;99408.94;;;13.39;37.75
22753;BME280;11543;43.144;24.684;2023-03-13T10:11:28;99405.28;;;13.49;37.77
22753;BME280;11543;43.144;24.684;2023-03-13T10:14:36;99391.13;;;13.47;37.91
22753;BME280;11543;43.144;24.684;2023-03-13T10:19:39;99402.75;;;13.81;36.53
22753;BME280;11543;43.144;24.684;2023-03-13T10:22:14;99395.50;;;13.82;36.64
22753;BME280;11543;43.144;24.684;2023-03-13T10:24:46;99391.69;;;13.92;36.94
22753;BME280;11543;43.144;24.684;2023-03-13T10:27:14;99387.34;;;13.99;36.54
22753;BME280;11543;43.144;24.684;2023-03-13T10:29:40;99380.31;;;14.15;35.74
22753;BME280;11543;43.144;24.684;2023-03-13T10:32:09;99363.56;;;14.03;36.09
22753;BME280;11543;43.144;24.684;2023-03-13T10:34:58;99376.28;;;14.27;35.90
22753;BME280;11543;43.144;24.684;2023-03-13T10:37:28;99366.84;;;14.31;35.98
22753;BME280;11543;43.144;24.684;2023-03-13T10:40:10;99371.63;;;14.45;35.60
22753;BME280;11543;43.144;24.684;2023-03-13T10:42:42;99363.34;;;14.47;36.09
22753;BME280;11543;43.144;24.684;2023-03-13T10:45:17;99370.78;;;14.53;35.60
22753;BME280;11543;43.144;24.684;2023-03-13T10:47:43;99354.41;;;14.71;35.27
22753;BME280;11543;43.144;24.684;2023-03-13T10:50:17;99346.97;;;14.73;35.10
22753;BME280;11543;43.144;24.684;2023-03-13T10:52:45;99349.03;;;14.87;35.47
22753;BME280;11543;43.144;24.684;2023-03-13T10:55:19;99346.97;;;15.05;34.42
22753;BME280;11543;43.144;24.684;2023-03-13T11:00:34;99320.97;;;15.12;33.63
22753;BME280;11543;43.144;24.684;2023-03-13T11:03:04;99324.31;;;15.14;33.93
22753;BME280;11543;43.144;24.684;2023-03-13T11:05:36;99316.53;;;15.19;33.92
22753;BME280;11543;43.144;24.684;2023-03-13T11:08:32;99321.91;;;15.36;33.97
22753;BME280;11543;43.144;24.684;2023-03-13T11:11:04;99316.78;;;15.49;33.09
22753;BME280;11543;43.144;24.684;2023-03-13T11:13:33;99322.69;;;15.52;33.33
22753;BME280;11543;43.144;24.684;2023-03-13T11:16:15;99318.97;;;15.53;34.14
22753;BME280;11543;43.144;24.684;2023-03-13T11:21:37;99301.88;;;15.69;34.71
22753;BME280;11543;43.144;24.684;2023-03-13T11:24:14;99282.53;;;15.80;34.13
22753;BME280;11543;43.144;24.684;2023-03-13T11:32:41;99273.28;;;16.43;32.49
22753;BME280;11543;43.144;24.684;2023-03-13T11:37:43;99256.34;;;16.27;31.82
22753;BME280;11543;43.144;24.684;2023-03-13T11:43:19;99271.25;;;16.45;31.97
22753;BME280;11543;43.144;24.684;2023-03-13T11:49:07;99268.75;;;16.67;31.51
22753;BME280;11543;43.144;24.684;2023-03-13T11:52:33;99269.03;;;16.72;31.59
22753;BME280;11543;43.144;24.684;2023-03-13T11:57:34;99260.53;;;16.75;30.91
22753;BME280;11543;43.144;24.684;2023-03-13T12:00:30;99250.72;;;16.74;30.77
22753;BME280;11543;43.144;24.684;2023-03-13T12:03:19;99239.34;;;16.78;30.10
22753;BME280;11543;43.144;24.684;2023-03-13T12:05:52;99222.38;;;16.62;30.54
22753;BME280;11543;43.144;24.684;2023-03-13T12:08:27;99238.88;;;16.75;30.06
22753;BME280;11543;43.144;24.684;2023-03-13T12:11:00;99238.97;;;16.81;30.10
22753;BME280;11543;43.144;24.684;2023-03-13T12:13:33;99212.53;;;16.83;29.73
22753;BME280;11543;43.144;24.684;2023-03-13T12:16:06;99231.03;;;16.80;30.84
22753;BME280;11543;43.144;24.684;2023-03-13T12:18:37;99213.44;;;16.76;31.01
22753;BME280;11543;43.144;24.684;2023-03-13T12:21:31;99219.25;;;17.02;30.95
22753;BME280;11543;43.144;24.684;2023-03-13T12:24:31;99219.81;;;17.12;29.81
22753;BME280;11543;43.144;24.684;2023-03-13T12:27:04;99212.44;;;17.06;29.14
22753;BME280;11543;43.144;24.684;2023-03-13T12:34:59;99193.63;;;17.19;28.86
22753;BME280;11543;43.144;24.684;2023-03-13T12:40:34;99204.78;;;17.75;28.72
22753;BME280;11543;43.144;24.684;2023-03-13T12:43:25;99205.63;;;17.76;29.02
22753;BME280;11543;43.144;24.684;2023-03-13T12:48:44;99202.78;;;17.84;29.05
22753;BME280;11543;43.144;24.684;2023-03-13T12:59:18;99195.75;;;17.90;28.12
22753;BME280;11543;43.144;24.684;2023-03-13T13:05:39;99177.31;;;18.06;29.03
22753;BME280;11543;43.144;24.684;2023-03-13T13:19:44;99192.97;;;18.54;27.66
22753;BME280;11543;43.144;24.684;2023-03-13T13:35:17;99177.91;;;18.02;27.68
22753;BME280;11543;43.144;24.684;2023-03-13T13:41:24;99195.22;;;17.79;28.59
22753;BME280;11543;43.144;24.684;2023-03-13T13:44:18;99190.56;;;17.73;28.17
22753;BME280;11543;43.144;24.684;2023-03-13T13:46:54;99179.91;;;17.57;28.88
22753;BME280;11543;43.144;24.684;2023-03-13T13:49:31;99169.28;;;17.41;28.67
22753;BME280;11543;43.144;24.684;2023-03-13T13:57:22;99158.25;;;17.28;28.87
22753;BME280;11543;43.144;24.684;2023-03-13T14:00:28;99181.91;;;17.48;28.87
22753;BME280;11543;43.144;24.684;2023-03-13T14:03:24;99169.56;;;17.46;29.68
22753;BME280;11543;43.144;24.684;2023-03-13T14:09:39;99147.75;;;17.54;30.04
22753;BME280;11543;43.144;24.684;2023-03-13T14:12:29;99160.06;;;17.71;29.68
22753;BME280;11543;43.144;24.684;2023-03-13T14:15:18;99164.72;;;17.77;29.61
22753;BME280;11543;43.144;24.684;2023-03-13T14:18:25;99163.09;;;17.83;29.73
22753;BME280;11543;43.144;24.684;2023-03-13T14:21:03;99159.41;;;17.91;28.71
22753;BME280;11543;43.144;24.684;2023-03-13T14:23:43;99152.63;;;17.80;28.49
22753;BME280;11543;43.144;24.684;2023-03-13T14:26:16;99163.41;;;17.73;28.77
22753;BME280;11543;43.144;24.684;2023-03-13T14:31:56;99153.94;;;17.48;28.88
22753;BME280;11543;43.144;24.684;2023-03-13T14:34:23;99143.66;;;17.29;29.38
22753;BME280;11543;43.144;24.684;2023-03-13T14:36:55;99155.28;;;17.23;29.61
22753;BME280;11543;43.144;24.684;2023-03-13T14:39:49;99157.84;;;17.09;29.32
22753;BME280;11543;43.144;24.684;2023-03-13T14:45:31;99145.63;;;16.84;29.85
22753;BME280;11543;43.144;24.684;2023-03-13T14:51:27;99143.38;;;16.73;29.43
22753;BME280;11543;43.144;24.684;2023-03-13T14:54:00;99157.66;;;16.81;29.84
22753;BME280;11543;43.144;24.684;2023-03-13T14:56:39;99158.78;;;16.72;30.28
22753;BME280;11543;43.144;24.684;2023-03-13T14:59:16;99149.03;;;16.63;30.12